Portage, Ohio
Current Conditions -  °F | °C
As of 6:53 AM on Sunday 23 Nov 2014 (Local Time) from KTDZ Reporting Station
Overcast Overcast  
Wind Chill: 41°   Ceiling: 4200
Heat Index: 45°   Visibility: 8mi
Dew Point: 42°   Wind: 7mph
Humidity: 90%   Direction: 180°S
Pressure: 29.97"   Gusts: NA
Location:  41.33°N, 83.65°W
Report Text: KTDZ 231153Z AUTO 18006KT 8SM BKN042 BKN055 OVC070 07/06 A2997 RMK AO2 RAE03 SLP149 P0000 60012 70021 T00720056 10106 20072 57008 TSNO
Loading
Personal Weather Stations






























Interactive Weather Map New forecast layout! Learn more

10-Day Weather Forecast

Advertisements
Track Severe Weather on mobile